createdAt,value
2018-12-15T00:00:04.297Z,16.60
2018-12-15T00:01:04.426Z,16.90
2018-12-15T00:02:04.430Z,15.40
2018-12-15T00:03:04.658Z,17.10
2018-12-15T00:04:04.767Z,16.50
2018-12-15T00:05:05.169Z,16.80
2018-12-15T00:06:05.410Z,15.90
2018-12-15T00:07:05.607Z,16.20
2018-12-15T00:08:05.927Z,16.40
2018-12-15T00:09:05.921Z,16.00
2018-12-15T00:10:06.682Z,16.30
2018-12-15T00:11:09.601Z,15.90
2018-12-15T00:12:07.375Z,16.70
2018-12-15T00:13:07.361Z,16.50
2018-12-15T00:14:07.500Z,16.10
2018-12-15T00:15:07.340Z,15.60
2018-12-15T00:16:07.516Z,16.10
2018-12-15T00:17:07.661Z,17.40
2018-12-15T00:18:07.664Z,15.40
2018-12-15T00:19:08.326Z,17.70
2018-12-15T00:20:08.513Z,16.70
2018-12-15T00:21:08.257Z,17.00
2018-12-15T00:22:08.516Z,18.10
2018-12-15T00:23:08.782Z,16.50
2018-12-15T00:24:09.807Z,17.30
2018-12-15T00:25:09.692Z,16.70
2018-12-15T00:26:09.443Z,18.50
2018-12-15T00:27:10.171Z,16.70
2018-12-15T00:28:10.528Z,18.70
2018-12-15T00:29:10.377Z,16.70
2018-12-15T00:30:10.749Z,17.00
2018-12-15T00:31:11.049Z,16.50
2018-12-15T00:32:11.526Z,17.10
2018-12-15T00:33:11.895Z,18.20
2018-12-15T00:34:12.260Z,17.90
2018-12-15T00:35:12.947Z,16.80
2018-12-15T00:36:12.895Z,18.60
2018-12-15T00:37:13.196Z,16.80
2018-12-15T00:38:13.532Z,17.00
2018-12-15T00:39:13.827Z,17.40
2018-12-15T00:40:14.395Z,16.80
2018-12-15T00:41:14.267Z,16.30
2018-12-15T00:42:14.843Z,15.90
2018-12-15T00:43:14.769Z,16.10
2018-12-15T00:44:15.133Z,16.10
2018-12-15T00:45:15.950Z,16.30
2018-12-15T00:46:15.810Z,16.60
2018-12-15T00:47:16.221Z,16.70
2018-12-15T00:48:16.604Z,17.10
2018-12-15T00:49:17.215Z,17.60
2018-12-15T00:50:17.515Z,17.20
2018-12-15T00:51:17.293Z,17.20
2018-12-15T00:52:17.809Z,17.30
2018-12-15T00:53:17.876Z,17.80
2018-12-15T00:54:17.719Z,15.00
2018-12-15T00:55:18.912Z,16.00
2018-12-15T00:56:19.123Z,16.70
2018-12-15T00:57:19.231Z,16.10
2018-12-15T00:58:19.231Z,15.80
2018-12-15T00:59:20.272Z,15.40
2018-12-15T01:00:20.276Z,15.60
2018-12-15T01:01:20.666Z,17.00
2018-12-15T01:02:20.804Z,16.60
2018-12-15T01:03:21.325Z,17.50
2018-12-15T01:04:21.232Z,15.30
2018-12-15T01:05:21.437Z,16.50
2018-12-15T01:06:21.547Z,17.40
2018-12-15T01:07:21.458Z,16.40
2018-12-15T01:08:21.955Z,15.90
2018-12-15T01:09:22.281Z,17.50
2018-12-15T01:10:22.475Z,16.90
2018-12-15T01:11:22.607Z,16.80
2018-12-15T01:12:22.881Z,16.00
2018-12-15T01:13:22.958Z,17.70
2018-12-15T01:14:23.041Z,15.70
2018-12-15T01:15:23.098Z,17.50
2018-12-15T01:16:23.669Z,17.80
2018-12-15T01:17:23.981Z,16.30
2018-12-15T01:18:24.047Z,17.40
2018-12-15T01:19:24.100Z,16.50
2018-12-15T01:20:24.116Z,16.10
2018-12-15T01:21:24.375Z,17.00
2018-12-15T01:22:24.368Z,16.70
2018-12-15T01:23:24.966Z,16.10
2018-12-15T01:25:25.621Z,17.50
2018-12-15T01:26:25.504Z,15.50
2018-12-15T01:27:25.740Z,14.80
2018-12-15T01:28:25.976Z,15.60
2018-12-15T01:29:25.781Z,15.50
2018-12-15T01:30:26.149Z,16.40
2018-12-15T01:31:26.812Z,16.50
2018-12-15T01:32:26.789Z,16.30
2018-12-15T01:33:27.442Z,16.20
2018-12-15T01:34:27.373Z,15.70
2018-12-15T01:35:27.754Z,15.40
2018-12-15T01:36:28.312Z,15.80
2018-12-15T01:37:28.121Z,16.20
2018-12-15T01:38:28.437Z,17.10
2018-12-15T01:39:28.896Z,16.40
2018-12-15T01:41:29.308Z,18.60
2018-12-15T01:42:29.694Z,17.30
2018-12-15T01:43:30.152Z,16.90
2018-12-15T01:44:30.566Z,16.10
2018-12-15T01:45:30.840Z,16.20
2018-12-15T01:46:31.506Z,16.10
2018-12-15T01:47:31.452Z,17.00
2018-12-15T01:48:32.250Z,16.00
2018-12-15T01:49:32.268Z,17.80
2018-12-15T01:50:32.133Z,16.90
2018-12-15T01:51:32.624Z,18.00
2018-12-15T01:52:33.207Z,17.10
2018-12-15T01:53:33.523Z,18.40
2018-12-15T01:54:34.150Z,17.50
2018-12-15T01:55:34.766Z,16.80
2018-12-15T01:56:34.874Z,17.40
2018-12-15T01:57:35.293Z,16.70
2018-12-15T01:58:35.710Z,18.70
2018-12-15T01:59:36.137Z,16.10
2018-12-15T02:00:36.331Z,17.00
2018-12-15T02:01:36.752Z,16.20
2018-12-15T02:02:36.853Z,16.90
2018-12-15T02:03:37.058Z,18.00
2018-12-15T02:04:36.969Z,17.30
2018-12-15T02:05:37.303Z,15.80
2018-12-15T02:06:37.576Z,15.20
2018-12-15T02:07:37.787Z,16.00
2018-12-15T02:08:38.023Z,16.50
2018-12-15T02:09:38.243Z,16.20
2018-12-15T02:10:38.439Z,16.40
2018-12-15T02:11:38.652Z,15.60
2018-12-15T02:12:38.805Z,15.40
2018-12-15T02:13:38.921Z,17.60
2018-12-15T02:14:39.049Z,17.10
2018-12-15T02:15:39.325Z,16.90
2018-12-15T02:16:39.426Z,16.00
2018-12-15T02:17:39.674Z,16.50
2018-12-15T02:18:39.864Z,16.70
2018-12-15T02:19:39.551Z,17.60
2018-12-15T02:20:39.819Z,16.50
2018-12-15T02:21:40.758Z,17.30
2018-12-15T02:22:40.662Z,16.80
2018-12-15T02:23:41.026Z,16.70
2018-12-15T02:24:41.388Z,16.50
2018-12-15T02:25:41.781Z,16.60
2018-12-15T02:26:42.354Z,15.70
2018-12-15T02:27:42.201Z,16.20
2018-12-15T02:28:42.479Z,16.30
2018-12-15T02:29:42.767Z,14.90
2018-12-15T02:30:43.266Z,16.70
2018-12-15T02:31:43.611Z,17.90
2018-12-15T02:32:43.978Z,15.70
2018-12-15T02:33:44.641Z,16.60
2018-12-15T02:34:44.478Z,16.70
2018-12-15T02:35:44.812Z,15.90
2018-12-15T02:36:45.086Z,17.60
2018-12-15T02:37:45.473Z,16.70
2018-12-15T02:38:45.836Z,17.50
2018-12-15T02:39:46.172Z,16.20
2018-12-15T02:40:46.497Z,16.00
2018-12-15T02:41:47.587Z,16.00
2018-12-15T02:42:46.897Z,15.40
2018-12-15T02:43:47.327Z,16.70
2018-12-15T02:44:47.733Z,16.20
2018-12-15T02:45:48.319Z,15.50
2018-12-15T02:46:48.819Z,14.90
2018-12-15T02:47:48.632Z,16.30
2018-12-15T02:48:49.552Z,16.40
2018-12-15T02:49:49.765Z,15.30
2018-12-15T02:50:49.981Z,16.50
2018-12-15T02:51:50.393Z,16.60
2018-12-15T02:52:50.803Z,15.40
2018-12-15T02:53:50.915Z,16.30
2018-12-15T02:54:51.027Z,16.80
2018-12-15T02:55:51.248Z,15.00
2018-12-15T02:56:51.348Z,14.50
2018-12-15T02:57:51.754Z,16.30
2018-12-15T02:58:51.866Z,15.50
2018-12-15T02:59:51.963Z,15.20
2018-12-15T03:00:51.877Z,15.10
2018-12-15T03:01:52.273Z,15.10
2018-12-15T03:02:52.512Z,14.50
2018-12-15T03:03:52.605Z,14.20
2018-12-15T03:04:52.794Z,14.40
2018-12-15T03:05:53.000Z,14.80
2018-12-15T03:06:53.225Z,14.60
2018-12-15T03:07:53.454Z,14.50
2018-12-15T03:08:53.709Z,13.70
2018-12-15T03:09:53.896Z,13.30
2018-12-15T03:10:54.002Z,14.30
2018-12-15T03:11:54.091Z,13.10
2018-12-15T03:12:54.116Z,14.10
2018-12-15T03:13:54.146Z,14.80
2018-12-15T03:14:54.278Z,13.20
2018-12-15T03:15:54.345Z,13.50
2018-12-15T03:16:54.151Z,12.90
2018-12-15T03:17:54.862Z,12.60
2018-12-15T03:18:54.740Z,12.90
2018-12-15T03:19:54.709Z,13.50
2018-12-15T03:20:55.124Z,14.40
2018-12-15T03:21:55.291Z,14.50
2018-12-15T03:22:55.311Z,14.10
2018-12-15T03:23:56.018Z,13.40
2018-12-15T03:24:56.176Z,14.10
2018-12-15T03:25:56.103Z,14.30
2018-12-15T03:26:56.714Z,13.90
2018-12-15T03:27:56.926Z,13.80
2018-12-15T03:28:56.883Z,14.30
2018-12-15T03:29:57.269Z,12.90
2018-12-15T03:30:57.716Z,13.60
2018-12-15T03:31:58.054Z,13.90
2018-12-15T03:32:58.377Z,13.40
2018-12-15T03:33:58.911Z,14.00
2018-12-15T03:34:58.851Z,13.40
2018-12-15T03:35:59.142Z,13.70
2018-12-15T03:36:59.690Z,12.90
2018-12-15T03:37:59.921Z,14.20
2018-12-15T03:38:59.869Z,13.20
2018-12-15T03:40:00.171Z,14.30
2018-12-15T03:41:00.648Z,12.90
2018-12-15T03:42:01.671Z,13.50
2018-12-15T03:43:01.423Z,13.00
2018-12-15T03:44:01.488Z,12.10
2018-12-15T03:45:01.811Z,12.70
2018-12-15T03:46:02.128Z,13.10
2018-12-15T03:47:02.096Z,12.60
2018-12-15T03:48:02.622Z,14.10
2018-12-15T03:49:02.798Z,12.30
2018-12-15T03:50:03.362Z,12.80
2018-12-15T03:51:03.002Z,13.10
2018-12-15T03:52:02.965Z,12.80
2018-12-15T03:53:04.611Z,13.60
2018-12-15T03:54:04.210Z,12.70
2018-12-15T03:55:04.423Z,13.40
2018-12-15T03:56:04.751Z,13.20
2018-12-15T03:57:04.844Z,12.90
2018-12-15T03:58:05.264Z,12.70
2018-12-15T03:59:05.368Z,13.00
2018-12-15T04:00:05.579Z,12.60
2018-12-15T04:01:06.007Z,12.60
2018-12-15T04:02:06.215Z,12.00
2018-12-15T04:03:06.435Z,13.20
2018-12-15T04:04:06.848Z,13.00
2018-12-15T04:05:06.943Z,12.90
2018-12-15T04:06:07.067Z,12.50
2018-12-15T04:07:06.963Z,12.50
2018-12-15T04:08:07.309Z,13.00
2018-12-15T04:09:07.208Z,12.60
2018-12-15T04:10:07.899Z,13.40
2018-12-15T04:11:07.943Z,13.10
2018-12-15T04:12:08.061Z,12.40
2018-12-15T04:13:08.085Z,12.40
2018-12-15T04:14:08.232Z,11.40
2018-12-15T04:15:08.445Z,13.80
2018-12-15T04:16:08.315Z,13.40
2018-12-15T04:17:09.038Z,12.30
2018-12-15T04:18:09.272Z,12.00
2018-12-15T04:19:09.057Z,12.80
2018-12-15T04:20:09.727Z,13.20
2018-12-15T04:21:09.926Z,13.00
2018-12-15T04:22:09.781Z,12.70
2018-12-15T04:23:10.176Z,12.70
2018-12-15T04:24:10.649Z,13.50
2018-12-15T04:25:11.305Z,13.50
2018-12-15T04:26:11.075Z,13.90
2018-12-15T04:27:11.365Z,13.80
2018-12-15T04:28:11.937Z,14.20
2018-12-15T04:30:12.341Z,12.60
2018-12-15T04:31:12.179Z,13.80
2018-12-15T04:32:12.629Z,13.80
2018-12-15T04:33:12.931Z,13.30
2018-12-15T04:34:13.313Z,13.30
2018-12-15T04:35:14.109Z,12.90
2018-12-15T04:36:13.979Z,12.60
2018-12-15T04:37:14.300Z,12.30
2018-12-15T04:38:14.938Z,13.10
2018-12-15T04:39:14.782Z,11.80
2018-12-15T04:40:15.772Z,12.70
2018-12-15T04:41:15.612Z,12.90
2018-12-15T04:42:15.922Z,12.80
2018-12-15T04:43:16.394Z,13.50
2018-12-15T04:44:16.796Z,13.10
2018-12-15T04:45:17.173Z,13.90
2018-12-15T04:46:17.540Z,13.10
2018-12-15T04:47:17.876Z,12.70
2018-12-15T04:48:19.002Z,13.60
2018-12-15T04:49:19.217Z,12.90
2018-12-15T04:50:19.425Z,12.40
2018-12-15T04:51:19.448Z,12.80
2018-12-15T04:52:19.744Z,13.40
2018-12-15T04:53:20.060Z,13.20
2018-12-15T04:54:20.261Z,12.00
2018-12-15T04:55:20.593Z,12.80
2018-12-15T04:56:21.017Z,12.30
2018-12-15T04:57:21.265Z,12.70
2018-12-15T04:58:21.642Z,12.60
2018-12-15T04:59:22.031Z,12.80
2018-12-15T05:00:22.129Z,13.00
2018-12-15T05:01:22.137Z,13.30
2018-12-15T05:02:22.138Z,12.80
2018-12-15T05:03:22.984Z,12.90
2018-12-15T05:04:22.782Z,12.70
2018-12-15T05:05:22.934Z,13.40
2018-12-15T05:06:23.228Z,12.30
2018-12-15T05:07:23.316Z,14.20
2018-12-15T05:08:23.508Z,13.60
2018-12-15T05:09:23.697Z,12.40
2018-12-15T05:10:23.983Z,12.20
2018-12-15T05:11:24.096Z,12.70
2018-12-15T05:12:24.090Z,12.90
2018-12-15T05:13:24.361Z,12.90
2018-12-15T05:14:24.846Z,12.50
2018-12-15T05:15:25.423Z,12.20
2018-12-15T05:16:25.213Z,12.50
2018-12-15T05:17:25.469Z,12.70
2018-12-15T05:18:25.967Z,12.50
2018-12-15T05:19:26.187Z,13.50
2018-12-15T05:20:26.158Z,13.60
2018-12-15T05:21:26.544Z,13.70
2018-12-15T05:22:26.927Z,12.80
2018-12-15T05:23:27.493Z,12.60
2018-12-15T05:24:27.362Z,12.90
2018-12-15T05:25:27.683Z,12.60
2018-12-15T05:26:28.257Z,13.30
2018-12-15T05:27:28.056Z,12.80
2018-12-15T05:28:28.432Z,13.10
2018-12-15T05:29:28.838Z,13.10
2018-12-15T05:30:29.195Z,12.00
2018-12-15T05:31:29.565Z,13.30
2018-12-15T05:32:30.145Z,13.20
2018-12-15T05:33:29.978Z,13.20
2018-12-15T05:34:30.289Z,12.50
2018-12-15T05:35:30.715Z,13.20
2018-12-15T05:36:31.050Z,13.50
2018-12-15T05:37:31.622Z,12.90
2018-12-15T05:38:31.549Z,13.80
2018-12-15T05:39:31.905Z,13.30
2018-12-15T05:40:32.306Z,13.90
2018-12-15T05:41:32.862Z,12.90
2018-12-15T05:42:32.701Z,13.50
2018-12-15T05:43:34.001Z,13.50
2018-12-15T05:44:34.216Z,13.00
2018-12-15T05:45:34.431Z,14.00
2018-12-15T05:46:34.744Z,13.80
2018-12-15T05:47:35.155Z,13.30
2018-12-15T05:49:35.576Z,12.10
2018-12-15T05:50:36.174Z,13.40
2018-12-15T05:51:36.108Z,13.20
2018-12-15T05:52:35.908Z,13.80
2018-12-15T05:53:36.158Z,13.70
2018-12-15T05:54:36.429Z,14.80
2018-12-15T05:55:36.546Z,14.10
2018-12-15T05:56:36.648Z,13.70
2018-12-15T05:58:36.971Z,13.10
2018-12-15T05:59:37.008Z,13.00
2018-12-15T06:00:36.977Z,12.70
2018-12-15T06:01:36.807Z,13.70
2018-12-15T06:02:37.592Z,13.10
2018-12-15T06:03:37.657Z,13.30
2018-12-15T06:04:37.755Z,14.10
2018-12-15T06:05:38.008Z,13.20
2018-12-15T06:06:38.254Z,13.10
2018-12-15T06:07:38.474Z,13.10
2018-12-15T06:08:38.648Z,13.40
2018-12-15T06:09:38.571Z,12.70
2018-12-15T06:10:39.143Z,12.90
2018-12-15T06:11:39.121Z,14.30
2018-12-15T06:12:39.448Z,13.20
2018-12-15T06:13:39.757Z,12.90
2018-12-15T06:14:40.099Z,13.80
2018-12-15T06:15:40.385Z,12.90
2018-12-15T06:17:40.722Z,14.40
2018-12-15T06:18:40.989Z,14.50
2018-12-15T06:19:41.349Z,13.80
2018-12-15T06:20:41.824Z,13.70
2018-12-15T06:21:42.106Z,13.20
2018-12-15T06:22:42.616Z,13.80
2018-12-15T06:23:42.471Z,12.90
2018-12-15T06:24:42.809Z,13.90
2018-12-15T06:25:43.130Z,13.90
2018-12-15T06:26:43.511Z,14.40
2018-12-15T06:27:43.930Z,14.30
2018-12-15T06:28:44.305Z,13.40
2018-12-15T06:29:44.858Z,14.10
2018-12-15T06:30:45.023Z,14.10
2018-12-15T06:31:44.794Z,14.00
2018-12-15T06:32:45.140Z,14.90
2018-12-15T06:33:45.527Z,13.00
2018-12-15T06:34:45.897Z,14.00
2018-12-15T06:35:46.304Z,14.10
2018-12-15T06:36:46.948Z,15.60
2018-12-15T06:37:46.804Z,13.80
2018-12-15T06:38:47.097Z,13.90
2018-12-15T06:39:47.483Z,13.60
2018-12-15T06:40:48.515Z,13.60
2018-12-15T06:41:47.998Z,13.80
2018-12-15T06:42:49.351Z,14.30
2018-12-15T06:43:49.238Z,14.40
2018-12-15T06:44:49.467Z,12.80
2018-12-15T06:45:49.771Z,13.70
2018-12-15T06:46:50.081Z,14.70
2018-12-15T06:47:50.198Z,12.90
2018-12-15T06:48:50.607Z,14.40
2018-12-15T06:49:50.716Z,14.00
2018-12-15T06:50:50.982Z,13.50
2018-12-15T06:51:51.124Z,13.90
2018-12-15T06:52:51.178Z,14.70
2018-12-15T06:53:51.356Z,14.60
2018-12-15T06:54:51.219Z,13.20
2018-12-15T06:55:51.772Z,14.80
2018-12-15T06:56:51.885Z,13.90
2018-12-15T06:57:51.802Z,12.80
2018-12-15T06:58:52.492Z,13.90
2018-12-15T06:59:52.364Z,14.30
2018-12-15T07:00:52.547Z,13.40
2018-12-15T07:01:52.613Z,13.90
2018-12-15T07:02:53.140Z,12.20
2018-12-15T07:03:53.263Z,13.20
2018-12-15T07:04:53.368Z,14.10
2018-12-15T07:05:53.579Z,13.70
2018-12-15T07:06:53.748Z,13.50
2018-12-15T07:07:54.173Z,14.40
2018-12-15T07:08:54.234Z,13.50
2018-12-15T07:09:54.535Z,13.80
2018-12-15T07:10:54.300Z,14.40
2018-12-15T07:11:54.656Z,14.10
2018-12-15T07:12:55.006Z,14.40
2018-12-15T07:13:55.403Z,13.80
2018-12-15T07:14:55.409Z,13.30
2018-12-15T07:15:55.722Z,13.80
2018-12-15T07:16:56.056Z,13.70
2018-12-15T07:17:56.371Z,14.50
2018-12-15T07:18:56.666Z,14.40
2018-12-15T07:19:57.096Z,13.90
2018-12-15T07:20:57.883Z,15.70
2018-12-15T07:21:57.803Z,13.50
2018-12-15T07:22:58.350Z,14.50
2018-12-15T07:23:58.499Z,14.00
2018-12-15T07:24:58.677Z,14.40
2018-12-15T07:25:58.968Z,14.00
2018-12-15T07:26:59.292Z,13.90
2018-12-15T07:27:59.762Z,13.70
2018-12-15T07:29:00.284Z,14.80
2018-12-15T07:30:00.216Z,14.80
2018-12-15T07:31:00.597Z,14.80
2018-12-15T07:32:00.480Z,14.70
2018-12-15T07:33:01.724Z,14.20
2018-12-15T07:34:01.551Z,14.00
2018-12-15T07:35:01.458Z,15.00
2018-12-15T07:36:02.069Z,15.00
2018-12-15T07:37:01.848Z,14.50
2018-12-15T07:38:02.780Z,14.70
2018-12-15T07:39:03.370Z,14.80
2018-12-15T07:40:03.754Z,14.30
2018-12-15T07:41:03.771Z,14.30
2018-12-15T07:42:04.061Z,14.00
2018-12-15T07:43:05.117Z,13.80
2018-12-15T07:44:04.069Z,14.10
2018-12-15T07:45:04.592Z,13.30
2018-12-15T07:46:04.807Z,13.00
2018-12-15T07:47:04.911Z,14.20
2018-12-15T07:48:05.277Z,14.80
2018-12-15T07:49:11.368Z,14.90
2018-12-15T07:50:05.656Z,14.80
2018-12-15T07:51:07.051Z,14.40
2018-12-15T07:52:06.591Z,14.80
2018-12-15T07:53:06.623Z,15.70
2018-12-15T07:54:07.103Z,15.40
2018-12-15T07:55:06.913Z,15.40
2018-12-15T07:56:07.323Z,13.90
2018-12-15T07:57:07.513Z,15.80
2018-12-15T07:58:07.720Z,14.40
2018-12-15T07:59:08.008Z,13.60
2018-12-15T08:00:07.877Z,13.10
2018-12-15T08:01:08.409Z,13.90
2018-12-15T08:02:11.930Z,13.30
2018-12-15T08:03:16.046Z,15.00
2018-12-15T08:04:08.744Z,15.20
2018-12-15T08:05:09.662Z,16.30
2018-12-15T08:06:10.224Z,15.50
2018-12-15T08:07:09.854Z,13.20
2018-12-15T08:08:10.590Z,17.00
2018-12-15T08:10:10.953Z,15.50
2018-12-15T08:11:10.876Z,15.50
2018-12-15T08:12:11.013Z,13.70
2018-12-15T08:13:14.287Z,14.00
2018-12-15T08:14:11.394Z,15.10
2018-12-15T08:15:12.130Z,12.30
2018-12-15T08:16:12.204Z,14.30
2018-12-15T08:17:12.653Z,13.60
2018-12-15T08:18:12.957Z,13.40
2018-12-15T08:19:13.366Z,13.70
2018-12-15T08:20:13.759Z,14.60
2018-12-15T08:21:14.115Z,14.00
2018-12-15T08:22:15.095Z,13.50
2018-12-15T08:23:14.928Z,13.70
2018-12-15T08:24:15.320Z,13.80
2018-12-15T08:25:16.055Z,13.40
2018-12-15T08:26:15.870Z,13.50
2018-12-15T08:27:16.353Z,13.40
2018-12-15T08:28:16.813Z,13.80
2018-12-15T08:29:17.373Z,14.40
2018-12-15T08:30:17.906Z,14.00
2018-12-15T08:31:17.203Z,13.10
2018-12-15T08:32:18.109Z,13.00
2018-12-15T08:33:18.125Z,13.20
2018-12-15T08:34:18.221Z,14.30
2018-12-15T08:35:18.435Z,13.50
2018-12-15T08:36:20.383Z,12.80
2018-12-15T08:37:20.289Z,13.00
2018-12-15T08:38:20.720Z,13.80
2018-12-15T08:39:20.606Z,13.40
2018-12-15T08:40:20.100Z,13.70
2018-12-15T08:41:20.214Z,13.00
2018-12-15T08:42:20.120Z,12.70
2018-12-15T08:43:20.846Z,12.60
2018-12-15T08:44:21.051Z,13.60
2018-12-15T08:45:21.218Z,14.70
2018-12-15T08:46:21.187Z,13.30
2018-12-15T08:47:21.888Z,13.30
2018-12-15T08:48:21.834Z,13.00
2018-12-15T08:49:22.163Z,12.60
2018-12-15T08:50:22.418Z,13.30
2018-12-15T08:51:22.614Z,14.00
2018-12-15T08:52:22.936Z,13.50
2018-12-15T08:53:23.178Z,13.20
2018-12-15T08:54:23.471Z,13.20
2018-12-15T08:55:23.697Z,12.70
2018-12-15T08:56:23.956Z,12.90
2018-12-15T08:57:23.991Z,12.80
2018-12-15T08:58:24.298Z,12.60
2018-12-15T08:59:24.774Z,11.90
2018-12-15T09:00:25.052Z,12.40
2018-12-15T09:01:25.418Z,13.30
2018-12-15T09:02:25.893Z,12.50
2018-12-15T09:03:26.343Z,13.20
2018-12-15T09:04:26.633Z,12.90
2018-12-15T09:05:27.082Z,14.00
2018-12-15T09:06:27.840Z,13.50
2018-12-15T09:07:27.599Z,13.90
2018-12-15T09:08:28.105Z,12.90
2018-12-15T09:09:28.384Z,13.90
2018-12-15T09:10:28.743Z,14.40
2018-12-15T09:11:29.016Z,13.10
2018-12-15T09:12:29.297Z,13.50
2018-12-15T09:13:30.029Z,13.80
2018-12-15T09:14:30.021Z,14.10
2018-12-15T09:15:30.559Z,14.30
2018-12-15T09:16:30.445Z,13.80
2018-12-15T09:17:30.776Z,13.30
2018-12-15T09:18:31.325Z,13.30
2018-12-15T09:19:31.154Z,12.90
2018-12-15T09:20:31.735Z,11.50
2018-12-15T09:21:31.668Z,12.30
2018-12-15T09:22:31.962Z,12.00
2018-12-15T09:23:32.557Z,12.60
2018-12-15T09:24:32.470Z,12.10
2018-12-15T09:25:33.200Z,13.00
2018-12-15T09:26:33.611Z,12.60
2018-12-15T09:27:34.134Z,13.00
2018-12-15T09:28:34.264Z,12.20
2018-12-15T09:29:34.981Z,12.40
2018-12-15T09:30:35.383Z,12.50
2018-12-15T09:31:35.895Z,12.00
2018-12-15T09:32:35.700Z,11.50
2018-12-15T09:33:35.688Z,12.40
2018-12-15T09:34:36.271Z,11.50
2018-12-15T09:35:36.231Z,12.20
2018-12-15T09:36:36.285Z,12.00
2018-12-15T09:37:36.742Z,12.00
2018-12-15T09:38:37.259Z,12.10
2018-12-15T09:39:37.766Z,12.20
2018-12-15T09:40:37.492Z,12.30
2018-12-15T09:41:37.566Z,13.50
2018-12-15T09:42:37.615Z,12.00
2018-12-15T09:43:37.810Z,12.20
2018-12-15T09:44:37.923Z,12.20
2018-12-15T09:45:38.244Z,12.10
2018-12-15T09:46:38.626Z,11.80
2018-12-15T09:47:38.904Z,12.30
2018-12-15T09:48:38.964Z,12.10
2018-12-15T09:49:38.983Z,11.70
2018-12-15T09:50:39.088Z,11.40
2018-12-15T09:51:39.142Z,12.10
2018-12-15T09:52:39.565Z,11.50
2018-12-15T09:53:39.423Z,11.40
2018-12-15T09:54:40.035Z,11.80
2018-12-15T09:55:40.038Z,12.40
2018-12-15T09:56:40.362Z,12.20
2018-12-15T09:57:40.732Z,12.80
2018-12-15T09:58:41.007Z,11.70
2018-12-15T09:59:41.636Z,12.50
2018-12-15T10:00:41.558Z,12.80
2018-12-15T10:01:42.097Z,12.90
2018-12-15T10:02:42.025Z,12.00
2018-12-15T10:03:42.428Z,13.20
2018-12-15T10:04:42.746Z,12.00
2018-12-15T10:05:43.145Z,12.30
2018-12-15T10:06:43.688Z,12.20
2018-12-15T10:07:43.544Z,11.70
2018-12-15T10:08:44.128Z,12.50
2018-12-15T10:09:44.210Z,12.40
2018-12-15T10:10:44.132Z,12.30
2018-12-15T10:11:44.647Z,11.30
2018-12-15T10:12:44.984Z,12.10
2018-12-15T10:13:45.271Z,12.60
2018-12-15T10:14:46.221Z,10.80
2018-12-15T10:15:46.150Z,12.70
2018-12-15T10:16:46.663Z,11.90
2018-12-15T10:17:46.988Z,12.80
2018-12-15T10:18:47.353Z,12.20
2018-12-15T10:19:47.648Z,11.90
2018-12-15T10:20:48.401Z,12.50
2018-12-15T10:21:48.817Z,12.00
2018-12-15T10:22:49.308Z,11.60
2018-12-15T10:23:50.163Z,10.90
2018-12-15T10:24:50.587Z,10.90
2018-12-15T10:25:50.896Z,11.70
2018-12-15T10:26:51.002Z,11.90
2018-12-15T10:27:50.907Z,11.10
2018-12-15T10:28:51.109Z,11.70
2018-12-15T10:29:51.748Z,12.20
2018-12-15T10:30:52.043Z,11.20
2018-12-15T10:31:52.358Z,11.80
2018-12-15T10:32:52.036Z,11.00
2018-12-15T10:33:52.271Z,10.90
2018-12-15T10:34:52.543Z,10.80
2018-12-15T10:35:52.625Z,10.60
2018-12-15T10:36:52.696Z,11.00
2018-12-15T10:37:52.882Z,12.50
2018-12-15T10:38:53.125Z,11.30
2018-12-15T10:39:53.449Z,11.60
2018-12-15T10:40:53.624Z,11.70
2018-12-15T10:41:53.977Z,11.40
2018-12-15T10:42:54.168Z,11.50
2018-12-15T10:43:54.596Z,9.80
2018-12-15T10:44:54.527Z,12.30
2018-12-15T10:45:54.823Z,10.80
2018-12-15T10:46:55.500Z,10.70
2018-12-15T10:47:55.498Z,10.90
2018-12-15T10:48:56.024Z,11.00
2018-12-15T10:49:55.963Z,10.50
2018-12-15T10:50:56.428Z,11.70
2018-12-15T10:51:56.974Z,11.80
2018-12-15T10:52:57.102Z,11.20
2018-12-15T10:53:57.174Z,11.00
2018-12-15T10:54:57.335Z,12.20
2018-12-15T10:55:57.530Z,10.90
2018-12-15T10:56:57.299Z,11.40
2018-12-15T10:57:57.677Z,11.60
2018-12-15T10:58:58.204Z,10.90
2018-12-15T10:59:58.036Z,11.20
2018-12-15T11:00:58.338Z,11.10
2018-12-15T11:01:58.806Z,11.50
2018-12-15T11:02:59.087Z,11.60
2018-12-15T11:04:00.912Z,11.50
2018-12-15T11:04:59.909Z,11.10
2018-12-15T11:05:59.819Z,10.70
2018-12-15T11:07:00.474Z,11.50
2018-12-15T11:08:00.491Z,10.40
2018-12-15T11:09:00.355Z,11.50
2018-12-15T11:10:00.461Z,11.50
2018-12-15T11:11:01.297Z,10.30
2018-12-15T11:12:01.742Z,10.00
2018-12-15T11:13:02.256Z,10.30
2018-12-15T11:14:02.410Z,10.20
2018-12-15T11:15:02.450Z,10.50
2018-12-15T11:16:03.319Z,10.70
2018-12-15T11:17:03.205Z,11.20
2018-12-15T11:18:04.140Z,10.30
2018-12-15T11:19:04.453Z,11.40
2018-12-15T11:20:04.572Z,11.10
2018-12-15T11:21:04.973Z,10.60
2018-12-15T11:22:05.086Z,10.40
2018-12-15T11:23:05.295Z,10.80
2018-12-15T11:24:05.719Z,11.60
2018-12-15T11:25:06.133Z,10.90
2018-12-15T11:26:06.443Z,12.00
2018-12-15T11:27:06.757Z,11.30
2018-12-15T11:28:07.175Z,10.80
2018-12-15T11:29:07.076Z,11.90
2018-12-15T11:30:07.531Z,11.50
2018-12-15T11:31:07.429Z,10.60
2018-12-15T11:32:07.784Z,11.00
2018-12-15T11:33:09.059Z,11.70
2018-12-15T11:34:08.408Z,11.00
2018-12-15T11:35:08.927Z,11.60
2018-12-15T11:36:08.832Z,11.20
2018-12-15T11:37:09.640Z,11.00
2018-12-15T11:38:09.427Z,11.90
2018-12-15T11:39:09.787Z,11.40
2018-12-15T11:40:10.165Z,11.40
2018-12-15T11:41:10.743Z,12.30
2018-12-15T11:42:11.099Z,11.20
2018-12-15T11:43:11.476Z,10.40
2018-12-15T11:44:11.919Z,11.70
2018-12-15T11:45:12.462Z,11.20
2018-12-15T11:46:12.712Z,11.00
2018-12-15T11:47:12.576Z,11.20
2018-12-15T11:48:13.381Z,10.90
2018-12-15T11:49:13.284Z,12.00
2018-12-15T11:50:13.883Z,10.90
2018-12-15T11:51:13.874Z,11.00
2018-12-15T11:52:14.477Z,11.10
2018-12-15T11:53:14.234Z,10.80
2018-12-15T11:54:14.510Z,11.20
2018-12-15T11:55:15.322Z,10.80
2018-12-15T11:56:15.358Z,11.40
2018-12-15T11:57:15.437Z,10.90
2018-12-15T11:58:15.541Z,10.80
2018-12-15T11:59:15.408Z,11.10
2018-12-15T12:00:16.061Z,11.90
2018-12-15T12:02:15.943Z,11.10
2018-12-15T12:03:16.461Z,10.70
2018-12-15T12:04:16.502Z,11.60
2018-12-15T12:05:16.836Z,10.90
2018-12-15T12:06:16.915Z,12.00
2018-12-15T12:07:16.791Z,11.80
2018-12-15T12:08:17.250Z,11.40
2018-12-15T12:09:17.752Z,11.60
2018-12-15T12:10:18.912Z,11.20
2018-12-15T12:11:19.339Z,11.10
2018-12-15T12:12:19.540Z,11.30
2018-12-15T12:13:19.749Z,10.60
2018-12-15T12:14:19.756Z,11.10
2018-12-15T12:15:19.866Z,10.90
2018-12-15T12:16:20.391Z,10.80
2018-12-15T12:17:20.200Z,9.90
2018-12-15T12:18:20.603Z,10.70
2018-12-15T12:19:20.820Z,10.80
2018-12-15T12:20:20.823Z,11.00
2018-12-15T12:21:21.348Z,10.80
2018-12-15T12:22:21.350Z,11.20
2018-12-15T12:23:21.460Z,11.20
2018-12-15T12:24:21.567Z,11.50
2018-12-15T12:25:21.766Z,11.00
2018-12-15T12:26:21.384Z,12.20
2018-12-15T12:27:21.785Z,12.20
2018-12-15T12:28:22.202Z,11.20
2018-12-15T12:29:22.355Z,11.30
2018-12-15T12:30:22.499Z,10.90
2018-12-15T12:31:22.636Z,9.60
2018-12-15T12:32:22.800Z,10.50
2018-12-15T12:33:22.910Z,10.50
2018-12-15T12:34:23.173Z,11.20
2018-12-15T12:35:23.368Z,10.20
2018-12-15T12:36:23.484Z,11.00
2018-12-15T12:37:23.654Z,10.70
2018-12-15T12:38:23.868Z,11.20
2018-12-15T12:39:24.012Z,10.70
2018-12-15T12:40:24.107Z,10.40
2018-12-15T12:41:24.544Z,10.60
2018-12-15T12:42:24.345Z,12.20
2018-12-15T12:43:25.035Z,10.80
2018-12-15T12:44:24.854Z,11.30
2018-12-15T12:45:25.594Z,11.10
2018-12-15T12:46:25.409Z,11.00
2018-12-15T12:47:25.934Z,11.00
2018-12-15T12:49:26.484Z,10.50
2018-12-15T12:50:26.655Z,11.00
2018-12-15T12:51:26.449Z,11.30
2018-12-15T12:52:27.036Z,11.60
2018-12-15T12:53:26.886Z,11.70
2018-12-15T12:54:27.247Z,11.20
2018-12-15T12:55:27.663Z,11.30
2018-12-15T12:56:28.304Z,12.10
2018-12-15T12:57:28.180Z,11.30
2018-12-15T12:59:28.927Z,11.00
2018-12-15T13:00:28.952Z,11.40
2018-12-15T13:01:29.352Z,11.10
2018-12-15T13:02:29.587Z,12.00
2018-12-15T13:03:29.726Z,11.40
2018-12-15T13:04:29.802Z,11.20
2018-12-15T13:05:29.796Z,10.90